createdAt,value
2017-11-05T00:00:12.718Z,51.29
2017-11-05T00:00:44.881Z,51.1
2017-11-05T00:01:17.052Z,51.29
2017-11-05T00:01:49.184Z,51.29
2017-11-05T00:02:21.347Z,50.81
2017-11-05T00:02:53.548Z,50.9
2017-11-05T00:03:25.659Z,51.29
2017-11-05T00:03:57.799Z,51.48
2017-11-05T00:04:29.937Z,51.2
2017-11-05T00:05:02.122Z,51.2
2017-11-05T00:05:34.285Z,51.48
2017-11-05T00:06:06.383Z,51
2017-11-05T00:06:38.590Z,51.29
2017-11-05T00:07:11.287Z,51.58
2017-11-05T00:07:43.468Z,51.48
2017-11-05T00:08:15.791Z,51.48
2017-11-05T00:08:47.919Z,51.48
2017-11-05T00:09:20.101Z,51.29
2017-11-05T00:09:52.123Z,51.29
2017-11-05T00:10:24.323Z,51.39
2017-11-05T00:10:56.483Z,51.48
2017-11-05T00:11:28.634Z,51.48
2017-11-05T00:12:00.699Z,51.68
2017-11-05T00:12:32.789Z,51.1
2017-11-05T00:13:04.934Z,51.1
2017-11-05T00:13:37.003Z,51.1
2017-11-05T00:14:09.266Z,51.2
2017-11-05T00:14:41.405Z,51.1
2017-11-05T00:15:13.614Z,51.58
2017-11-05T00:15:45.665Z,51.58
2017-11-05T00:16:18.789Z,51.39
2017-11-05T00:16:50.880Z,51.48
2017-11-05T00:17:23.034Z,51.58
2017-11-05T00:17:55.123Z,51.68
2017-11-05T00:18:27.319Z,51.58
2017-11-05T00:18:59.458Z,51.68
2017-11-05T00:19:31.720Z,51.1
2017-11-05T00:20:03.884Z,51.58
2017-11-05T00:20:36.071Z,51.2
2017-11-05T00:21:08.268Z,51.48
2017-11-05T00:21:40.304Z,51.48
2017-11-05T00:22:12.439Z,51.48
2017-11-05T00:22:44.517Z,51.58
2017-11-05T00:23:16.658Z,51.29
2017-11-05T00:23:48.858Z,51.58
2017-11-05T00:24:20.983Z,51
2017-11-05T00:24:53.180Z,51.29
2017-11-05T00:25:25.354Z,51.1
2017-11-05T00:25:57.531Z,51.2
2017-11-05T00:26:29.667Z,51.68
2017-11-05T00:27:01.677Z,51.1
2017-11-05T00:27:33.773Z,51.2
2017-11-05T00:28:05.834Z,51.68
2017-11-05T00:28:38.011Z,51.48
2017-11-05T00:29:10.148Z,51.2
2017-11-05T00:29:42.239Z,51.68
2017-11-05T00:30:14.278Z,51.58
2017-11-05T00:30:46.485Z,51.1
2017-11-05T00:31:18.604Z,51.39
2017-11-05T00:31:50.683Z,51.39
2017-11-05T00:32:22.870Z,51.1
2017-11-05T00:32:54.880Z,51.58
2017-11-05T00:33:27.106Z,51.58
2017-11-05T00:33:59.223Z,51.2
2017-11-05T00:34:31.260Z,51.77
2017-11-05T00:35:03.451Z,51.68
2017-11-05T00:35:35.702Z,51.58
2017-11-05T00:36:07.965Z,51.77
2017-11-05T00:36:40.095Z,51.87
2017-11-05T00:37:12.297Z,51.77
2017-11-05T00:37:44.528Z,51.39
2017-11-05T00:38:16.743Z,51.87
2017-11-05T00:38:48.941Z,51.48
2017-11-05T00:39:21.126Z,51.48
2017-11-05T00:39:53.333Z,51.77
2017-11-05T00:40:25.473Z,51.77
2017-11-05T00:40:57.548Z,51.29
2017-11-05T00:41:29.700Z,51.39
2017-11-05T00:42:02.521Z,51.39
2017-11-05T00:42:34.758Z,51.39
2017-11-05T00:43:06.789Z,51.68
2017-11-05T00:43:38.999Z,51.39
2017-11-05T00:44:11.085Z,51.77
2017-11-05T00:44:43.230Z,51.29
2017-11-05T00:45:15.413Z,51.29
2017-11-05T00:45:47.678Z,51.29
2017-11-05T00:46:19.776Z,51.68
2017-11-05T00:46:51.955Z,51.29
2017-11-05T00:47:24.029Z,51.58
2017-11-05T00:47:56.113Z,51.29
2017-11-05T00:48:28.189Z,51.68
2017-11-05T00:49:00.394Z,51.58
2017-11-05T00:49:32.647Z,51.68
2017-11-05T00:50:04.849Z,51.58
2017-11-05T00:50:37.108Z,51.39
2017-11-05T00:51:09.191Z,51.68
2017-11-05T00:51:41.336Z,51.39
2017-11-05T00:52:13.415Z,51.68
2017-11-05T00:52:45.539Z,51.39
2017-11-05T00:53:17.691Z,51.77
2017-11-05T00:53:49.955Z,51.87
2017-11-05T00:54:22.149Z,51.48
2017-11-05T00:54:54.251Z,51.48
2017-11-05T00:55:26.463Z,51.87
2017-11-05T00:55:58.548Z,51.68
2017-11-05T00:56:30.686Z,51.77
2017-11-05T00:57:02.862Z,51.39
2017-11-05T00:57:34.934Z,51.77
2017-11-05T00:58:07.071Z,51.87
2017-11-05T00:58:39.146Z,51.77
2017-11-05T00:59:12.104Z,51.29
2017-11-05T00:59:44.200Z,51.39
2017-11-05T01:00:16.269Z,51.77
2017-11-05T01:00:48.527Z,51.39
2017-11-05T01:01:20.734Z,51.87
2017-11-05T01:01:52.919Z,51.87
2017-11-05T01:02:25.071Z,51.77
2017-11-05T01:02:57.151Z,51.97
2017-11-05T01:03:29.358Z,51.48
2017-11-05T01:04:01.441Z,51.29
2017-11-05T01:04:33.645Z,51.77
2017-11-05T01:05:05.870Z,51.77
2017-11-05T01:05:38.075Z,51.97
2017-11-05T01:06:10.281Z,51.87
2017-11-05T01:06:42.358Z,51.87
2017-11-05T01:07:14.500Z,51.87
2017-11-05T01:07:46.505Z,51.48
2017-11-05T01:08:18.588Z,51.87
2017-11-05T01:08:50.785Z,51.29
2017-11-05T01:09:22.871Z,51.87
2017-11-05T01:09:54.964Z,51.39
2017-11-05T01:10:27.156Z,51.87
2017-11-05T01:10:59.285Z,52.06
2017-11-05T01:11:31.436Z,51.87
2017-11-05T01:12:03.574Z,51.97
2017-11-05T01:12:35.642Z,51.87
2017-11-05T01:13:07.725Z,51.48
2017-11-05T01:13:39.899Z,51.68
2017-11-05T01:14:12.022Z,52.16
2017-11-05T01:14:44.101Z,52.16
2017-11-05T01:15:16.837Z,52.16
2017-11-05T01:15:48.958Z,51.58
2017-11-05T01:16:21.060Z,52.16
2017-11-05T01:16:53.139Z,52.16
2017-11-05T01:17:25.221Z,52.06
2017-11-05T01:17:57.297Z,51.87
2017-11-05T01:18:29.509Z,51.48
2017-11-05T01:19:01.767Z,51.48
2017-11-05T01:19:33.854Z,51.58
2017-11-05T01:20:06.060Z,51.58
2017-11-05T01:20:38.123Z,52.06
2017-11-05T01:21:10.453Z,52.45
2017-11-05T01:21:42.575Z,52.45
2017-11-05T01:22:14.769Z,52.45
2017-11-05T01:22:46.927Z,52.45
2017-11-05T01:23:19.056Z,51.58
2017-11-05T01:23:51.138Z,51.97
2017-11-05T01:24:23.397Z,52.55
2017-11-05T01:24:55.497Z,51.48
2017-11-05T01:25:27.572Z,52.35
2017-11-05T01:25:59.726Z,51.39
2017-11-05T01:26:31.913Z,52.35
2017-11-05T01:27:04.119Z,51.48
2017-11-05T01:27:36.310Z,52.35
2017-11-05T01:28:08.446Z,52.35
2017-11-05T01:28:40.535Z,51.58
2017-11-05T01:29:12.731Z,52.45
2017-11-05T01:29:45.040Z,52.45
2017-11-05T01:30:17.080Z,51.68
2017-11-05T01:30:49.189Z,52.35
2017-11-05T01:31:21.207Z,52.35
2017-11-05T01:31:53.333Z,51.58
2017-11-05T01:32:25.597Z,52.35
2017-11-05T01:32:57.658Z,51.48
2017-11-05T01:33:29.684Z,51.68
2017-11-05T01:34:01.844Z,51.68
2017-11-05T01:34:34.095Z,52.25
2017-11-05T01:35:06.189Z,52.35
2017-11-05T01:35:38.382Z,51.77
2017-11-05T01:36:10.585Z,52.25
2017-11-05T01:36:42.738Z,51.58
2017-11-05T01:37:14.903Z,51.77
2017-11-05T01:37:47.162Z,52.35
2017-11-05T01:38:19.233Z,51.87
2017-11-05T01:38:51.387Z,52.35
2017-11-05T01:39:23.535Z,52.35
2017-11-05T01:39:55.665Z,51.58
2017-11-05T01:40:27.740Z,51.77
2017-11-05T01:40:59.764Z,52.45
2017-11-05T01:41:31.922Z,52.35
2017-11-05T01:42:04.084Z,52.25
2017-11-05T01:42:36.245Z,52.35
2017-11-05T01:43:08.264Z,52.35
2017-11-05T01:43:40.362Z,51.68
2017-11-05T01:44:12.563Z,52.35
2017-11-05T01:44:44.684Z,52.45
2017-11-05T01:45:16.902Z,51.77
2017-11-05T01:45:49.176Z,51.97
2017-11-05T01:46:21.283Z,52.45
2017-11-05T01:46:53.368Z,51.77
2017-11-05T01:47:25.517Z,52.35
2017-11-05T01:47:57.626Z,51.97
2017-11-05T01:48:29.759Z,52.45
2017-11-05T01:49:01.838Z,51.77
2017-11-05T01:49:33.934Z,52.16
2017-11-05T01:50:06.053Z,51.77
2017-11-05T01:50:38.199Z,52.45
2017-11-05T01:51:10.262Z,51.97
2017-11-05T01:51:42.385Z,51.77
2017-11-05T01:52:14.467Z,51.68
2017-11-05T01:52:46.606Z,51.58
2017-11-05T01:53:18.706Z,52.25
2017-11-05T01:53:50.931Z,52.45
2017-11-05T01:54:23.173Z,52.16
2017-11-05T01:54:55.386Z,51.68
2017-11-05T01:55:27.540Z,52.16
2017-11-05T01:55:59.675Z,51.97
2017-11-05T01:56:31.797Z,52.45
2017-11-05T01:57:03.938Z,52.35
2017-11-05T01:57:36.146Z,52.25
2017-11-05T01:58:08.287Z,52.25
2017-11-05T01:58:40.366Z,51.97
2017-11-05T01:59:12.590Z,52.35
2017-11-05T01:59:44.682Z,51.97
2017-11-05T02:00:16.827Z,51.97
2017-11-05T02:00:48.960Z,52.06
2017-11-05T02:01:21.092Z,52.06
2017-11-05T02:01:53.187Z,52.06
2017-11-05T02:02:25.383Z,52.16
2017-11-05T02:02:57.576Z,52.06
2017-11-05T02:03:29.656Z,51.97
2017-11-05T02:04:01.795Z,52.25
2017-11-05T02:04:33.916Z,52.06
2017-11-05T02:05:06.171Z,52.16
2017-11-05T02:05:38.278Z,52.16
2017-11-05T02:06:10.399Z,51.97
2017-11-05T02:06:42.542Z,52.06
2017-11-05T02:07:14.675Z,52.06
2017-11-05T02:07:46.771Z,52.16
2017-11-05T02:08:19.620Z,52.25
2017-11-05T02:08:51.690Z,52.06
2017-11-05T02:09:23.843Z,52.06
2017-11-05T02:09:55.885Z,52.06
2017-11-05T02:10:28.042Z,52.16
2017-11-05T02:11:00.220Z,52.16
2017-11-05T02:11:32.310Z,52.06
2017-11-05T02:12:04.588Z,52.06
2017-11-05T02:12:36.683Z,52.06
2017-11-05T02:13:08.879Z,51.97
2017-11-05T02:13:40.958Z,52.16
2017-11-05T02:14:13.141Z,52.16
2017-11-05T02:14:45.217Z,52.06
2017-11-05T02:15:17.355Z,51.97
2017-11-05T02:15:49.570Z,51.97
2017-11-05T02:16:21.634Z,52.16
2017-11-05T02:16:53.716Z,52.16
2017-11-05T02:17:25.863Z,52.16
2017-11-05T02:17:58.015Z,52.06
2017-11-05T02:18:30.105Z,52.16
2017-11-05T02:19:02.256Z,52.16
2017-11-05T02:19:34.259Z,52.06
2017-11-05T02:20:06.273Z,52.16
2017-11-05T02:20:38.408Z,52.25
2017-11-05T02:21:10.653Z,52.35
2017-11-05T02:21:42.792Z,52.16
2017-11-05T02:22:14.878Z,52.06
2017-11-05T02:22:47.073Z,52.16
2017-11-05T02:23:19.207Z,52.35
2017-11-05T02:23:51.363Z,52.25
2017-11-05T02:24:23.413Z,52.25
2017-11-05T02:24:55.582Z,52.06
2017-11-05T02:25:28.673Z,51.97
2017-11-05T02:26:00.742Z,52.16
2017-11-05T02:26:32.828Z,52.16
2017-11-05T02:27:04.847Z,51.97
2017-11-05T02:27:36.929Z,52.06
2017-11-05T02:28:08.969Z,52.06
2017-11-05T02:28:41.111Z,51.97
2017-11-05T02:29:13.243Z,52.25
2017-11-05T02:29:45.368Z,52.16
2017-11-05T02:30:17.381Z,52.16
2017-11-05T02:30:49.603Z,52.35
2017-11-05T02:31:21.914Z,52.16
2017-11-05T02:31:53.985Z,52.16
2017-11-05T02:32:26.058Z,52.25
2017-11-05T02:32:58.094Z,52.25
2017-11-05T02:33:30.176Z,52.25
2017-11-05T02:34:02.261Z,52.16
2017-11-05T02:34:34.467Z,52.06
2017-11-05T02:35:06.700Z,52.25
2017-11-05T02:35:38.831Z,52.25
2017-11-05T02:36:11.029Z,52.16
2017-11-05T02:36:43.197Z,52.06
2017-11-05T02:37:16.873Z,52.06
2017-11-05T02:37:49.134Z,52.16
2017-11-05T02:38:21.165Z,52.06
2017-11-05T02:38:53.308Z,52.64
2017-11-05T02:39:25.668Z,52.06
2017-11-05T02:39:57.747Z,52.25
2017-11-05T02:40:29.859Z,52.35
2017-11-05T02:41:01.989Z,52.25
2017-11-05T02:41:34.864Z,52.25
2017-11-05T02:42:07.053Z,52.16
2017-11-05T02:42:39.080Z,52.06
2017-11-05T02:43:11.136Z,52.16
2017-11-05T02:43:43.245Z,52.25
2017-11-05T02:44:15.430Z,52.16
2017-11-05T02:44:47.471Z,52.16
2017-11-05T02:45:19.613Z,52.16
2017-11-05T02:45:51.772Z,52.06
2017-11-05T02:46:23.983Z,52.16
2017-11-05T02:46:56.145Z,51.97
2017-11-05T02:47:28.277Z,52.06
2017-11-05T02:48:00.362Z,52.16
2017-11-05T02:48:32.378Z,52.16
2017-11-05T02:49:04.397Z,52.55
2017-11-05T02:49:36.544Z,52.25
2017-11-05T02:50:08.670Z,52.06
2017-11-05T02:50:40.747Z,52.55
2017-11-05T02:51:12.908Z,52.55
2017-11-05T02:51:44.992Z,52.64
2017-11-05T02:52:17.191Z,51.97
2017-11-05T02:52:49.344Z,52.55
2017-11-05T02:53:21.474Z,51.97
2017-11-05T02:53:53.594Z,52.64
2017-11-05T02:54:25.631Z,52.06
2017-11-05T02:54:58.649Z,52.55
2017-11-05T02:55:30.794Z,52.06
2017-11-05T02:56:03.051Z,51.97
2017-11-05T02:56:35.134Z,52.06
2017-11-05T02:57:07.253Z,52.55
2017-11-05T02:57:39.403Z,52.06
2017-11-05T02:58:11.647Z,52.06
2017-11-05T02:58:43.748Z,52.06
2017-11-05T02:59:15.945Z,52.55
2017-11-05T02:59:48.132Z,52.55
2017-11-05T03:00:20.201Z,52.16
2017-11-05T03:00:52.264Z,52.55
2017-11-05T03:01:24.341Z,52.16
2017-11-05T03:01:56.479Z,52.55
2017-11-05T03:02:28.704Z,52.16
2017-11-05T03:03:00.798Z,52.64
2017-11-05T03:03:32.867Z,52.55
2017-11-05T03:04:05.052Z,52.64
2017-11-05T03:04:37.139Z,52.64
2017-11-05T03:05:09.239Z,52.64
2017-11-05T03:05:41.426Z,52.06
2017-11-05T03:06:13.580Z,52.55
2017-11-05T03:06:45.663Z,52.55
2017-11-05T03:07:17.838Z,52.35
2017-11-05T03:07:49.987Z,52.45
2017-11-05T03:08:22.136Z,52.35
2017-11-05T03:08:54.267Z,52.16
2017-11-05T03:09:26.342Z,52.16
2017-11-05T03:09:58.461Z,52.64
2017-11-05T03:10:30.563Z,52.64
2017-11-05T03:11:02.654Z,52.25
2017-11-05T03:11:35.290Z,52.06
2017-11-05T03:12:07.350Z,52.25
2017-11-05T03:12:39.559Z,52.16
2017-11-05T03:13:11.706Z,52.55
2017-11-05T03:13:43.891Z,52.55
2017-11-05T03:14:16.000Z,52.64
2017-11-05T03:14:48.152Z,52.64
2017-11-05T03:15:20.184Z,52.16
2017-11-05T03:15:52.249Z,52.25
2017-11-05T03:16:24.450Z,52.64
2017-11-05T03:16:57.370Z,52.25
2017-11-05T03:17:29.401Z,52.55
2017-11-05T03:18:01.486Z,52.64
2017-11-05T03:18:33.673Z,52.16
2017-11-05T03:19:05.756Z,52.64
2017-11-05T03:19:37.918Z,52.06
2017-11-05T03:20:10.035Z,52.25
2017-11-05T03:20:42.075Z,52.64
2017-11-05T03:21:14.216Z,52.64
2017-11-05T03:21:46.409Z,52.06
2017-11-05T03:22:18.625Z,52.64
2017-11-05T03:22:50.714Z,52.64
2017-11-05T03:23:22.842Z,52.73
2017-11-05T03:23:55.063Z,52.16
2017-11-05T03:24:27.250Z,52.64
2017-11-05T03:24:59.433Z,52.25
2017-11-05T03:25:31.601Z,52.25
2017-11-05T03:26:03.679Z,52.25
2017-11-05T03:26:35.927Z,52.16
2017-11-05T03:27:08.152Z,52.64
2017-11-05T03:27:40.418Z,52.64
2017-11-05T03:28:12.621Z,52.16
2017-11-05T03:28:44.719Z,52.73
2017-11-05T03:29:16.984Z,52.06
2017-11-05T03:29:49.061Z,52.64
2017-11-05T03:30:21.133Z,52.73
2017-11-05T03:30:53.387Z,52.64
2017-11-05T03:31:25.552Z,52.64
2017-11-05T03:31:57.636Z,52.45
2017-11-05T03:32:29.835Z,52.55
2017-11-05T03:33:02.042Z,52.64
2017-11-05T03:33:34.315Z,52.55
2017-11-05T03:34:06.632Z,52.55
2017-11-05T03:34:38.787Z,52.25
2017-11-05T03:35:10.994Z,52.64
2017-11-05T03:35:43.132Z,52.25
2017-11-05T03:36:15.200Z,52.25
2017-11-05T03:36:47.293Z,52.25
2017-11-05T03:37:19.454Z,52.64
2017-11-05T03:37:51.605Z,52.25
2017-11-05T03:38:23.691Z,52.06
2017-11-05T03:38:55.950Z,52.16
2017-11-05T03:39:28.033Z,52.25
2017-11-05T03:40:00.111Z,52.64
2017-11-05T03:40:32.217Z,52.16
2017-11-05T03:41:04.336Z,52.64
2017-11-05T03:41:36.527Z,52.55
2017-11-05T03:42:08.614Z,52.25
2017-11-05T03:42:40.802Z,52.16
2017-11-05T03:43:12.931Z,52.06
2017-11-05T03:43:44.957Z,52.64
2017-11-05T03:44:17.075Z,52.25
2017-11-05T03:44:49.269Z,52.06
2017-11-05T03:45:21.354Z,52.64
2017-11-05T03:45:53.446Z,52.64
2017-11-05T03:46:25.476Z,52.64
2017-11-05T03:46:57.672Z,52.64
2017-11-05T03:47:29.819Z,52.25
2017-11-05T03:48:01.952Z,52.64
2017-11-05T03:48:33.965Z,52.64
2017-11-05T03:49:06.003Z,52.73
2017-11-05T03:49:38.136Z,52.25
2017-11-05T03:50:10.233Z,52.55
2017-11-05T03:50:42.376Z,52.45
2017-11-05T03:51:14.406Z,52.55
2017-11-05T03:51:46.576Z,52.06
2017-11-05T03:52:18.728Z,52.73
2017-11-05T03:52:50.857Z,52.55
2017-11-05T03:53:23.002Z,52.64
2017-11-05T03:53:55.195Z,52.06
2017-11-05T03:54:27.332Z,52.35
2017-11-05T03:54:59.396Z,52.64
2017-11-05T03:55:31.559Z,52.37
2017-11-05T03:56:03.716Z,52.25
2017-11-05T03:56:35.846Z,52.55
2017-11-05T03:57:07.996Z,52.25
2017-11-05T03:57:40.146Z,52.64
2017-11-05T03:58:12.296Z,52.64
2017-11-05T03:58:44.387Z,52.16
2017-11-05T03:59:16.475Z,52.64
2017-11-05T03:59:48.674Z,52.16
2017-11-05T04:00:20.874Z,52.64
2017-11-05T04:00:52.889Z,52.25
2017-11-05T04:01:25.003Z,52.16
2017-11-05T04:01:57.090Z,52.06
2017-11-05T04:02:29.176Z,52.16
2017-11-05T04:03:01.311Z,52.64
2017-11-05T04:03:33.419Z,52.06
2017-11-05T04:04:05.468Z,52.64
2017-11-05T04:04:37.669Z,52.64
2017-11-05T04:05:09.920Z,52.64
2017-11-05T04:05:42.005Z,52.64
2017-11-05T04:06:14.158Z,52.55
2017-11-05T04:06:46.250Z,52.25
2017-11-05T04:07:18.388Z,52.64
2017-11-05T04:07:50.465Z,52.67
2017-11-05T04:08:22.703Z,52.67
2017-11-05T04:08:54.786Z,52.64
2017-11-05T04:09:26.841Z,52.64
2017-11-05T04:09:58.967Z,52.64
2017-11-05T04:10:31.108Z,52.73
2017-11-05T04:11:03.248Z,52.16
2017-11-05T04:11:35.389Z,52.64
2017-11-05T04:12:07.407Z,52.64
2017-11-05T04:12:39.554Z,52.67
2017-11-05T04:13:11.740Z,52.25
2017-11-05T04:13:43.940Z,52.64
2017-11-05T04:14:16.023Z,51.99
2017-11-05T04:14:48.153Z,52.67
2017-11-05T04:15:20.244Z,52.73
2017-11-05T04:15:52.385Z,52.28
2017-11-05T04:16:24.532Z,52.64
2017-11-05T04:16:56.726Z,52.64
2017-11-05T04:17:28.920Z,52.67
2017-11-05T04:18:01.059Z,52.55
2017-11-05T04:18:33.133Z,52.37
2017-11-05T04:19:05.260Z,52.67
2017-11-05T04:19:37.401Z,52.73
2017-11-05T04:20:09.584Z,52.64
2017-11-05T04:20:41.730Z,52.28
2017-11-05T04:21:13.806Z,52.09
2017-11-05T04:21:45.944Z,52.37
2017-11-05T04:22:18.100Z,52.73
2017-11-05T04:22:50.228Z,52.57
2017-11-05T04:23:22.330Z,52.64
2017-11-05T04:23:54.361Z,52.67
2017-11-05T04:24:26.432Z,52.37
2017-11-05T04:24:58.752Z,52.67
2017-11-05T04:25:30.887Z,52.57
2017-11-05T04:26:02.968Z,52.86
2017-11-05T04:26:35.054Z,52.57
2017-11-05T04:27:07.208Z,52.64
2017-11-05T04:27:39.288Z,52.37
2017-11-05T04:28:11.388Z,52.67
2017-11-05T04:28:43.472Z,52.67
2017-11-05T04:29:15.866Z,52.67
2017-11-05T04:29:48.009Z,52.67
2017-11-05T04:30:20.156Z,52.28
2017-11-05T04:30:52.320Z,52.06
2017-11-05T04:31:24.548Z,52.67
2017-11-05T04:31:56.745Z,52.57
2017-11-05T04:32:28.883Z,52.57
2017-11-05T04:33:01.100Z,52.67
2017-11-05T04:33:33.326Z,52.64
2017-11-05T04:34:05.397Z,52.67
2017-11-05T04:34:37.582Z,52.06
2017-11-05T04:35:09.734Z,52.57
2017-11-05T04:35:41.928Z,52.67
2017-11-05T04:36:14.074Z,52.57
2017-11-05T04:36:46.211Z,52.67
2017-11-05T04:37:18.332Z,52.67
2017-11-05T04:37:50.610Z,52.76
2017-11-05T04:38:22.725Z,52.57
2017-11-05T04:38:54.744Z,52.19
2017-11-05T04:39:26.817Z,52.64
2017-11-05T04:39:59.013Z,52.57
2017-11-05T04:40:31.172Z,52.19
2017-11-05T04:41:04.282Z,52.73
2017-11-05T04:41:36.384Z,52.67
2017-11-05T04:42:08.467Z,52.55
2017-11-05T04:42:40.603Z,52.64
2017-11-05T04:43:12.726Z,52.67
2017-11-05T04:43:44.873Z,52.25
2017-11-05T04:44:17.007Z,52.19
2017-11-05T04:44:49.180Z,52.28
2017-11-05T04:45:21.204Z,52.76
2017-11-05T04:45:53.293Z,52.57
2017-11-05T04:46:25.368Z,52.67
2017-11-05T04:46:57.397Z,52.09
2017-11-05T04:47:29.531Z,52.67
2017-11-05T04:48:01.667Z,52.25
2017-11-05T04:48:33.825Z,52.57
2017-11-05T04:49:05.962Z,52.76
2017-11-05T04:49:38.275Z,52.67
2017-11-05T04:50:10.399Z,52.67
2017-11-05T04:50:42.494Z,52.19
2017-11-05T04:51:14.518Z,52.06
2017-11-05T04:51:46.596Z,52.57
2017-11-05T04:52:19.405Z,52.67
2017-11-05T04:52:51.649Z,52.67
2017-11-05T04:53:23.899Z,52.19
2017-11-05T04:53:55.964Z,52.55
2017-11-05T04:54:28.185Z,52.67
2017-11-05T04:55:00.379Z,52.67
2017-11-05T04:55:32.464Z,52.09
2017-11-05T04:56:04.554Z,52.76
2017-11-05T04:56:36.750Z,52.37
2017-11-05T04:57:08.899Z,52.73
2017-11-05T04:57:40.982Z,52.19
2017-11-05T04:58:13.238Z,52.76
2017-11-05T04:58:45.347Z,52.09
2017-11-05T04:59:17.614Z,52.67
2017-11-05T04:59:49.853Z,52.76
2017-11-05T05:00:22.003Z,52.67
2017-11-05T05:00:54.067Z,52.57
2017-11-05T05:01:26.158Z,52.76
2017-11-05T05:01:58.344Z,52.06
2017-11-05T05:02:30.524Z,52.28
2017-11-05T05:03:02.721Z,52.67
2017-11-05T05:03:34.853Z,52.67
2017-11-05T05:04:06.998Z,52.19
2017-11-05T05:04:39.214Z,52.19
2017-11-05T05:05:11.307Z,52.16
2017-11-05T05:05:43.435Z,52.67
2017-11-05T05:06:15.520Z,52.64
2017-11-05T05:06:47.778Z,52.09
2017-11-05T05:07:19.914Z,52.67
2017-11-05T05:07:51.995Z,52.37
2017-11-05T05:08:24.156Z,52.25
2017-11-05T05:08:57.359Z,52.67
2017-11-05T05:09:29.698Z,52.06
2017-11-05T05:10:01.783Z,52.67
2017-11-05T05:10:33.977Z,52.67
2017-11-05T05:11:06.076Z,52.55
2017-11-05T05:11:38.103Z,52.37
2017-11-05T05:12:10.133Z,52.67
2017-11-05T05:12:42.234Z,52.64
2017-11-05T05:13:14.306Z,52.67
2017-11-05T05:13:46.430Z,52.67
2017-11-05T05:14:18.567Z,52.76
2017-11-05T05:14:50.650Z,52.67
2017-11-05T05:15:22.780Z,52.28
2017-11-05T05:15:55.418Z,52.57
2017-11-05T05:16:27.622Z,52.09
2017-11-05T05:16:59.720Z,52.09
2017-11-05T05:17:31.864Z,52.67
2017-11-05T05:18:04.062Z,52.57
2017-11-05T05:18:36.203Z,52.67
2017-11-05T05:19:08.330Z,52.67
2017-11-05T05:19:40.466Z,52.28
2017-11-05T05:20:12.590Z,52.28
2017-11-05T05:20:44.921Z,52.67
2017-11-05T05:21:17.032Z,52.67
2017-11-05T05:21:49.128Z,52.19
2017-11-05T05:22:21.209Z,52.86
2017-11-05T05:22:53.446Z,52.67
2017-11-05T05:23:25.653Z,52.67
2017-11-05T05:23:57.790Z,52.67
2017-11-05T05:24:29.905Z,52.57
2017-11-05T05:25:02.033Z,52.57
2017-11-05T05:25:34.119Z,52.28
2017-11-05T05:26:06.278Z,52.67
2017-11-05T05:26:38.568Z,52.19
2017-11-05T05:27:10.608Z,52.67
2017-11-05T05:27:42.674Z,52.67
2017-11-05T05:28:14.975Z,52.67
2017-11-05T05:28:47.189Z,52.19
2017-11-05T05:29:19.352Z,52.09
2017-11-05T05:29:51.490Z,52.67
2017-11-05T05:30:23.572Z,52.37
2017-11-05T05:30:55.831Z,52.28
2017-11-05T05:31:28.035Z,52.67
2017-11-05T05:32:00.062Z,51.89
2017-11-05T05:32:32.313Z,51.99
2017-11-05T05:33:04.511Z,52.67
2017-11-05T05:33:36.581Z,52.57
2017-11-05T05:34:08.774Z,52.37
2017-11-05T05:34:40.924Z,52.47
2017-11-05T05:35:13.014Z,52.47
2017-11-05T05:35:45.044Z,52.09
2017-11-05T05:36:17.143Z,52.09
2017-11-05T05:36:49.163Z,52.67
2017-11-05T05:37:21.406Z,52.47
2017-11-05T05:37:53.651Z,52.67
2017-11-05T05:38:25.725Z,52.37
2017-11-05T05:38:57.919Z,52.67
2017-11-05T05:39:29.987Z,52.37
2017-11-05T05:40:02.119Z,52.37
2017-11-05T05:40:34.352Z,52.67
2017-11-05T05:41:06.635Z,52.67
2017-11-05T05:41:38.834Z,52.28
2017-11-05T05:42:11.002Z,52.67
2017-11-05T05:42:43.131Z,52.09
2017-11-05T05:43:15.300Z,52.67
2017-11-05T05:43:47.452Z,52.67
2017-11-05T05:44:19.633Z,52.67
2017-11-05T05:44:51.774Z,52.57
2017-11-05T05:45:23.854Z,52.09
2017-11-05T05:45:55.997Z,51.99
2017-11-05T05:46:28.269Z,52.57
2017-11-05T05:47:00.506Z,52.57
2017-11-05T05:47:33.468Z,51.99
2017-11-05T05:48:05.669Z,51.99
2017-11-05T05:48:37.855Z,52.57
2017-11-05T05:49:10.019Z,52.57
2017-11-05T05:49:42.227Z,52.37
2017-11-05T05:50:14.372Z,52.19
2017-11-05T05:50:46.559Z,52.37
2017-11-05T05:51:18.802Z,52.67
2017-11-05T05:51:50.942Z,52.67
2017-11-05T05:52:23.072Z,52.09
2017-11-05T05:52:55.213Z,52.28
2017-11-05T05:53:27.306Z,52.37
2017-11-05T05:53:59.443Z,52.67
2017-11-05T05:54:31.617Z,52.09
2017-11-05T05:55:03.836Z,52.57
2017-11-05T05:55:36.034Z,52.09
2017-11-05T05:56:08.185Z,52.09
2017-11-05T05:56:40.300Z,52.57
2017-11-05T05:57:12.494Z,52.57
2017-11-05T05:57:44.662Z,52.19
2017-11-05T05:58:16.747Z,51.99
2017-11-05T05:58:48.841Z,52.09
2017-11-05T05:59:20.910Z,52.09
2017-11-05T05:59:53.934Z,52.09
2017-11-05T06:00:26.091Z,52.28
2017-11-05T06:00:58.233Z,52.09
2017-11-05T06:01:30.316Z,52.09
2017-11-05T06:02:02.599Z,52.47
2017-11-05T06:02:34.735Z,52.37
2017-11-05T06:03:06.857Z,52.57
2017-11-05T06:03:38.913Z,51.99
2017-11-05T06:04:11.162Z,52.57
2017-11-05T06:04:43.239Z,52.57
2017-11-05T06:05:15.449Z,52.09
2017-11-05T06:05:47.600Z,52.57
2017-11-05T06:06:19.714Z,52.09
2017-11-05T06:06:51.845Z,52.57
2017-11-05T06:07:23.972Z,52.57
2017-11-05T06:07:56.198Z,52.67
2017-11-05T06:08:28.459Z,52.57
2017-11-05T06:09:00.601Z,52.57
2017-11-05T06:09:32.683Z,52.57
2017-11-05T06:10:04.767Z,52.09
2017-11-05T06:10:36.842Z,52.57
2017-11-05T06:11:09.095Z,51.99
2017-11-05T06:11:41.301Z,52.09
2017-11-05T06:12:13.457Z,51.99
2017-11-05T06:12:45.593Z,52.09
2017-11-05T06:13:17.673Z,52.09
2017-11-05T06:13:49.804Z,51.99
2017-11-05T06:14:21.904Z,52.57
2017-11-05T06:14:53.976Z,52.47
2017-11-05T06:15:26.117Z,52.57
2017-11-05T06:15:58.336Z,52.76
2017-11-05T06:16:30.352Z,51.99
2017-11-05T06:17:02.434Z,52.57
2017-11-05T06:17:34.501Z,52.09
2017-11-05T06:18:06.705Z,52.57
2017-11-05T06:18:38.795Z,52.47
2017-11-05T06:19:10.944Z,52.67
2017-11-05T06:19:43.109Z,52.28
2017-11-05T06:20:15.272Z,52.67
2017-11-05T06:20:47.294Z,52.28
2017-11-05T06:21:19.546Z,52.19
2017-11-05T06:21:51.703Z,51.99
2017-11-05T06:22:23.850Z,52.47
2017-11-05T06:22:56.019Z,52.47
2017-11-05T06:23:28.182Z,52.57
2017-11-05T06:24:00.376Z,52.57
2017-11-05T06:24:32.457Z,51.99
2017-11-05T06:25:04.721Z,52.09
2017-11-05T06:25:36.862Z,52.19
2017-11-05T06:26:09.118Z,51.99
2017-11-05T06:26:41.265Z,52.57
2017-11-05T06:27:13.470Z,52.67
2017-11-05T06:27:45.605Z,52.09
2017-11-05T06:28:17.744Z,52.28
2017-11-05T06:28:49.888Z,52.67
2017-11-05T06:29:21.962Z,52.09
2017-11-05T06:29:54.099Z,52.47
2017-11-05T06:30:26.234Z,52.37
2017-11-05T06:30:58.436Z,52.67
2017-11-05T06:31:30.528Z,52.19
2017-11-05T06:32:02.739Z,51.99
2017-11-05T06:32:34.823Z,52.67
2017-11-05T06:33:06.935Z,52.67
2017-11-05T06:33:39.011Z,52.57
2017-11-05T06:34:11.036Z,52.09
2017-11-05T06:34:43.183Z,52.37
2017-11-05T06:35:15.320Z,52.67
2017-11-05T06:35:47.397Z,52.37
2017-11-05T06:36:19.700Z,52.57
2017-11-05T06:36:51.887Z,52.67
2017-11-05T06:37:24.095Z,52.67
2017-11-05T06:37:56.285Z,52.67
2017-11-05T06:38:28.505Z,52.67
2017-11-05T06:39:00.614Z,52.76
2017-11-05T06:39:32.673Z,52.09
2017-11-05T06:40:04.838Z,52.19
2017-11-05T06:40:37.023Z,52.67
2017-11-05T06:41:09.175Z,52.09
2017-11-05T06:41:41.407Z,52.09
2017-11-05T06:42:13.552Z,52.37
2017-11-05T06:42:45.640Z,51.99
2017-11-05T06:43:17.773Z,52.67
2017-11-05T06:43:49.915Z,52.19
2017-11-05T06:44:22.007Z,52.76
2017-11-05T06:44:54.072Z,51.89
2017-11-05T06:45:26.212Z,52.67
2017-11-05T06:45:58.363Z,52.37
2017-11-05T06:46:30.386Z,52.37
2017-11-05T06:47:02.490Z,52.67
2017-11-05T06:47:34.700Z,52.37
2017-11-05T06:48:06.856Z,52.67
2017-11-05T06:48:39.065Z,52.67
2017-11-05T06:49:11.209Z,52.57
2017-11-05T06:49:43.317Z,52.57
2017-11-05T06:50:15.491Z,52.09
2017-11-05T06:50:47.631Z,52.19
2017-11-05T06:51:20.403Z,52.09
2017-11-05T06:51:52.535Z,52.67
2017-11-05T06:52:24.734Z,52.28
2017-11-05T06:52:57.878Z,52.67
2017-11-05T06:53:29.951Z,52.57
2017-11-05T06:54:02.210Z,52.28
2017-11-05T06:54:34.217Z,52.67